sensor_id;sensor_type;location;lat;lon;timestamp;temperature;humidity
70947;DHT22;58605;48.700;8.760;2022-10-15T00:01:55;14.10;99.90
70947;DHT22;58605;48.700;8.760;2022-10-15T00:04:21;14.10;99.90
70947;DHT22;58605;48.700;8.760;2022-10-15T00:06:49;14.10;99.90
70947;DHT22;58605;48.700;8.760;2022-10-15T00:09:15;14.10;99.90
70947;DHT22;58605;48.700;8.760;2022-10-15T00:11:41;14.10;99.90
70947;DHT22;58605;48.700;8.760;2022-10-15T00:14:07;14.10;99.90
70947;DHT22;58605;48.700;8.760;2022-10-15T00:16:33;14.10;99.90
70947;DHT22;58605;48.700;8.760;2022-10-15T00:18:59;14.10;99.90
70947;DHT22;58605;48.700;8.760;2022-10-15T00:21:25;14.20;99.90
70947;DHT22;58605;48.700;8.760;2022-10-15T00:23:53;14.10;99.90
70947;DHT22;58605;48.700;8.760;2022-10-15T00:26:24;14.10;99.90
70947;DHT22;58605;48.700;8.760;2022-10-15T00:28:53;14.20;99.90
70947;DHT22;58605;48.700;8.760;2022-10-15T00:31:20;14.20;99.90
70947;DHT22;58605;48.700;8.760;2022-10-15T00:33:50;14.20;99.90
70947;DHT22;58605;48.700;8.760;2022-10-15T00:36:17;14.20;99.90
70947;DHT22;58605;48.700;8.760;2022-10-15T00:38:44;14.30;99.90
70947;DHT22;58605;48.700;8.760;2022-10-15T00:41:14;14.30;99.90
70947;DHT22;58605;48.700;8.760;2022-10-15T00:43:42;14.30;99.90
70947;DHT22;58605;48.700;8.760;2022-10-15T00:46:19;14.20;99.90
70947;DHT22;58605;48.700;8.760;2022-10-15T00:48:48;14.30;99.90
70947;DHT22;58605;48.700;8.760;2022-10-15T00:51:16;14.30;99.90
70947;DHT22;58605;48.700;8.760;2022-10-15T00:53:42;14.30;99.90
70947;DHT22;58605;48.700;8.760;2022-10-15T00:56:08;14.30;99.90
70947;DHT22;58605;48.700;8.760;2022-10-15T00:58:36;14.40;99.90
70947;DHT22;58605;48.700;8.760;2022-10-15T01:01:02;14.30;99.90
70947;DHT22;58605;48.700;8.760;2022-10-15T01:03:28;14.30;99.90
70947;DHT22;58605;48.700;8.760;2022-10-15T01:05:54;14.30;99.90
70947;DHT22;58605;48.700;8.760;2022-10-15T01:08:21;14.30;99.90
70947;DHT22;58605;48.700;8.760;2022-10-15T01:10:52;14.30;99.90
70947;DHT22;58605;48.700;8.760;2022-10-15T01:13:24;14.30;99.90
70947;DHT22;58605;48.700;8.760;2022-10-15T01:16:00;14.20;99.90
70947;DHT22;58605;48.700;8.760;2022-10-15T01:18:33;14.20;99.90
70947;DHT22;58605;48.700;8.760;2022-10-15T01:21:07;14.10;99.90
70947;DHT22;58605;48.700;8.760;2022-10-15T01:24:22;14.10;99.90
70947;DHT22;58605;48.700;8.760;2022-10-15T01:27:27;14.00;99.90
70947;DHT22;58605;48.700;8.760;2022-10-15T01:30:21;14.10;99.90
70947;DHT22;58605;48.700;8.760;2022-10-15T01:33:07;14.00;99.90
70947;DHT22;58605;48.700;8.760;2022-10-15T01:35:46;14.00;99.90
70947;DHT22;58605;48.700;8.760;2022-10-15T01:38:22;14.10;99.90
70947;DHT22;58605;48.700;8.760;2022-10-15T01:40:55;14.00;99.90
70947;DHT22;58605;48.700;8.760;2022-10-15T01:43:28;14.00;99.90
70947;DHT22;58605;48.700;8.760;2022-10-15T01:45:58;14.00;99.90
70947;DHT22;58605;48.700;8.760;2022-10-15T01:48:28;14.00;99.90
70947;DHT22;58605;48.700;8.760;2022-10-15T01:50:58;14.00;99.90
70947;DHT22;58605;48.700;8.760;2022-10-15T01:53:26;14.00;99.90
70947;DHT22;58605;48.700;8.760;2022-10-15T01:55:54;14.00;99.90
70947;DHT22;58605;48.700;8.760;2022-10-15T01:58:22;14.00;99.90
70947;DHT22;58605;48.700;8.760;2022-10-15T02:00:50;14.10;99.90
70947;DHT22;58605;48.700;8.760;2022-10-15T02:03:18;14.10;99.90
70947;DHT22;58605;48.700;8.760;2022-10-15T02:05:47;14.10;99.90
70947;DHT22;58605;48.700;8.760;2022-10-15T02:08:19;14.10;99.90
70947;DHT22;58605;48.700;8.760;2022-10-15T02:10:53;14.10;99.90
70947;DHT22;58605;48.700;8.760;2022-10-15T02:13:26;14.10;99.90
70947;DHT22;58605;48.700;8.760;2022-10-15T02:16:02;14.10;99.90
70947;DHT22;58605;48.700;8.760;2022-10-15T02:18:38;14.00;99.90
70947;DHT22;58605;48.700;8.760;2022-10-15T02:21:08;14.10;99.90
70947;DHT22;58605;48.700;8.760;2022-10-15T02:23:40;14.10;99.90
70947;DHT22;58605;48.700;8.760;2022-10-15T02:26:11;14.10;99.90
70947;DHT22;58605;48.700;8.760;2022-10-15T02:28:41;14.10;99.90
70947;DHT22;58605;48.700;8.760;2022-10-15T02:31:08;14.10;99.90
70947;DHT22;58605;48.700;8.760;2022-10-15T02:33:38;14.10;99.90
70947;DHT22;58605;48.700;8.760;2022-10-15T02:36:05;14.10;99.90
70947;DHT22;58605;48.700;8.760;2022-10-15T02:38:32;14.10;99.90
70947;DHT22;58605;48.700;8.760;2022-10-15T02:41:00;14.10;99.90
70947;DHT22;58605;48.700;8.760;2022-10-15T02:43:26;14.10;99.90
70947;DHT22;58605;48.700;8.760;2022-10-15T02:45:52;14.10;99.90
70947;DHT22;58605;48.700;8.760;2022-10-15T02:48:18;14.10;99.90
70947;DHT22;58605;48.700;8.760;2022-10-15T02:50:46;14.10;99.90
70947;DHT22;58605;48.700;8.760;2022-10-15T02:53:12;14.10;99.90
70947;DHT22;58605;48.700;8.760;2022-10-15T02:55:38;14.10;99.90
70947;DHT22;58605;48.700;8.760;2022-10-15T02:58:04;14.10;99.90
70947;DHT22;58605;48.700;8.760;2022-10-15T03:00:30;14.10;99.90
70947;DHT22;58605;48.700;8.760;2022-10-15T03:02:56;14.10;99.90
70947;DHT22;58605;48.700;8.760;2022-10-15T03:05:22;14.10;99.90
70947;DHT22;58605;48.700;8.760;2022-10-15T03:07:50;14.10;99.90
70947;DHT22;58605;48.700;8.760;2022-10-15T03:10:16;14.10;99.90
70947;DHT22;58605;48.700;8.760;2022-10-15T03:12:42;14.10;99.90
70947;DHT22;58605;48.700;8.760;2022-10-15T03:15:08;14.10;99.90
70947;DHT22;58605;48.700;8.760;2022-10-15T03:17:34;14.20;99.90
70947;DHT22;58605;48.700;8.760;2022-10-15T03:20:00;14.20;99.90
70947;DHT22;58605;48.700;8.760;2022-10-15T03:22:26;14.20;99.90
70947;DHT22;58605;48.700;8.760;2022-10-15T03:24:53;14.10;99.90
70947;DHT22;58605;48.700;8.760;2022-10-15T03:27:19;14.20;99.90
70947;DHT22;58605;48.700;8.760;2022-10-15T03:29:45;14.20;99.90
70947;DHT22;58605;48.700;8.760;2022-10-15T03:32:11;14.20;99.90
70947;DHT22;58605;48.700;8.760;2022-10-15T03:34:37;14.30;99.90
70947;DHT22;58605;48.700;8.760;2022-10-15T03:37:03;14.30;99.90
70947;DHT22;58605;48.700;8.760;2022-10-15T03:39:29;14.30;99.90
70947;DHT22;58605;48.700;8.760;2022-10-15T03:41:57;14.20;99.90
70947;DHT22;58605;48.700;8.760;2022-10-15T03:44:23;14.20;99.90
70947;DHT22;58605;48.700;8.760;2022-10-15T03:46:49;14.20;99.90
70947;DHT22;58605;48.700;8.760;2022-10-15T03:49:15;14.20;99.90
70947;DHT22;58605;48.700;8.760;2022-10-15T03:51:41;14.20;99.90
70947;DHT22;58605;48.700;8.760;2022-10-15T03:54:07;14.30;99.90
70947;DHT22;58605;48.700;8.760;2022-10-15T03:56:33;14.30;99.90
70947;DHT22;58605;48.700;8.760;2022-10-15T03:59:00;14.30;99.90
70947;DHT22;58605;48.700;8.760;2022-10-15T04:01:26;14.30;99.90
70947;DHT22;58605;48.700;8.760;2022-10-15T04:03:52;14.30;99.90
70947;DHT22;58605;48.700;8.760;2022-10-15T04:06:19;14.20;99.90
70947;DHT22;58605;48.700;8.760;2022-10-15T04:08:45;14.20;99.90
70947;DHT22;58605;48.700;8.760;2022-10-15T04:11:11;14.20;99.90
70947;DHT22;58605;48.700;8.760;2022-10-15T04:13:37;14.20;99.90
70947;DHT22;58605;48.700;8.760;2022-10-15T04:16:05;14.20;99.90
70947;DHT22;58605;48.700;8.760;2022-10-15T04:18:31;14.20;99.90
70947;DHT22;58605;48.700;8.760;2022-10-15T04:20:58;14.20;99.90
70947;DHT22;58605;48.700;8.760;2022-10-15T04:23:24;14.20;99.90
70947;DHT22;58605;48.700;8.760;2022-10-15T04:25:50;14.20;99.90
70947;DHT22;58605;48.700;8.760;2022-10-15T04:28:16;14.20;99.90
70947;DHT22;58605;48.700;8.760;2022-10-15T04:30:43;14.20;99.90
70947;DHT22;58605;48.700;8.760;2022-10-15T04:33:10;14.20;99.90
70947;DHT22;58605;48.700;8.760;2022-10-15T04:35:36;14.20;99.90
70947;DHT22;58605;48.700;8.760;2022-10-15T04:38:02;14.10;99.90
70947;DHT22;58605;48.700;8.760;2022-10-15T04:40:28;14.10;99.90
70947;DHT22;58605;48.700;8.760;2022-10-15T04:42:54;14.20;99.90
70947;DHT22;58605;48.700;8.760;2022-10-15T04:45:20;14.20;99.90
70947;DHT22;58605;48.700;8.760;2022-10-15T04:47:46;14.30;99.90
70947;DHT22;58605;48.700;8.760;2022-10-15T04:50:14;14.20;99.90
70947;DHT22;58605;48.700;8.760;2022-10-15T04:52:40;14.20;99.90
70947;DHT22;58605;48.700;8.760;2022-10-15T04:55:06;14.30;99.90
70947;DHT22;58605;48.700;8.760;2022-10-15T04:57:32;14.30;99.90
70947;DHT22;58605;48.700;8.760;2022-10-15T04:59:58;14.20;99.90
70947;DHT22;58605;48.700;8.760;2022-10-15T05:02:24;14.20;99.90
70947;DHT22;58605;48.700;8.760;2022-10-15T05:04:57;14.20;99.90
70947;DHT22;58605;48.700;8.760;2022-10-15T05:07:24;14.30;99.90
70947;DHT22;58605;48.700;8.760;2022-10-15T05:09:50;14.40;99.90
70947;DHT22;58605;48.700;8.760;2022-10-15T05:12:16;14.40;99.90
70947;DHT22;58605;48.700;8.760;2022-10-15T05:14:42;14.40;99.90
70947;DHT22;58605;48.700;8.760;2022-10-15T05:17:08;14.40;99.90
70947;DHT22;58605;48.700;8.760;2022-10-15T05:19:34;14.40;99.90
70947;DHT22;58605;48.700;8.760;2022-10-15T05:22:00;14.30;99.90
70947;DHT22;58605;48.700;8.760;2022-10-15T05:24:28;14.30;99.90
70947;DHT22;58605;48.700;8.760;2022-10-15T05:26:54;14.40;99.90
70947;DHT22;58605;48.700;8.760;2022-10-15T05:29:20;14.50;99.90
70947;DHT22;58605;48.700;8.760;2022-10-15T05:31:49;14.50;99.90
70947;DHT22;58605;48.700;8.760;2022-10-15T05:34:15;14.50;99.90
70947;DHT22;58605;48.700;8.760;2022-10-15T05:36:41;14.40;99.90
70947;DHT22;58605;48.700;8.760;2022-10-15T05:39:07;14.40;99.90
70947;DHT22;58605;48.700;8.760;2022-10-15T05:41:36;14.30;99.90
70947;DHT22;58605;48.700;8.760;2022-10-15T05:44:03;14.40;99.90
70947;DHT22;58605;48.700;8.760;2022-10-15T05:46:29;14.50;99.90
70947;DHT22;58605;48.700;8.760;2022-10-15T05:48:56;14.40;99.90
70947;DHT22;58605;48.700;8.760;2022-10-15T05:51:23;14.30;99.90
70947;DHT22;58605;48.700;8.760;2022-10-15T05:53:51;14.10;99.90
70947;DHT22;58605;48.700;8.760;2022-10-15T05:56:17;14.10;99.90
70947;DHT22;58605;48.700;8.760;2022-10-15T05:58:44;14.10;99.90
70947;DHT22;58605;48.700;8.760;2022-10-15T06:01:11;14.10;99.90
70947;DHT22;58605;48.700;8.760;2022-10-15T06:03:44;14.10;99.90
70947;DHT22;58605;48.700;8.760;2022-10-15T06:06:15;14.10;99.90
70947;DHT22;58605;48.700;8.760;2022-10-15T06:08:42;14.10;99.90
70947;DHT22;58605;48.700;8.760;2022-10-15T06:11:08;14.10;99.90
70947;DHT22;58605;48.700;8.760;2022-10-15T06:13:34;14.10;99.90
70947;DHT22;58605;48.700;8.760;2022-10-15T06:16:05;14.10;99.90
70947;DHT22;58605;48.700;8.760;2022-10-15T06:18:31;14.10;99.90
70947;DHT22;58605;48.700;8.760;2022-10-15T06:20:57;14.10;99.90
70947;DHT22;58605;48.700;8.760;2022-10-15T06:23:23;14.10;99.90
70947;DHT22;58605;48.700;8.760;2022-10-15T06:25:50;14.20;99.90
70947;DHT22;58605;48.700;8.760;2022-10-15T06:28:16;14.30;99.90
70947;DHT22;58605;48.700;8.760;2022-10-15T06:30:42;14.40;99.90
70947;DHT22;58605;48.700;8.760;2022-10-15T06:33:10;14.40;99.90
70947;DHT22;58605;48.700;8.760;2022-10-15T06:35:36;14.60;99.90
70947;DHT22;58605;48.700;8.760;2022-10-15T06:38:03;14.50;99.90
70947;DHT22;58605;48.700;8.760;2022-10-15T06:40:30;14.70;99.90
70947;DHT22;58605;48.700;8.760;2022-10-15T06:43:03;14.80;99.90
70947;DHT22;58605;48.700;8.760;2022-10-15T06:45:29;14.80;99.90
70947;DHT22;58605;48.700;8.760;2022-10-15T06:47:55;14.90;99.90
70947;DHT22;58605;48.700;8.760;2022-10-15T06:50:22;15.00;99.90
70947;DHT22;58605;48.700;8.760;2022-10-15T06:52:48;14.90;99.90
70947;DHT22;58605;48.700;8.760;2022-10-15T06:55:14;14.90;99.90
70947;DHT22;58605;48.700;8.760;2022-10-15T06:57:40;14.80;99.90
70947;DHT22;58605;48.700;8.760;2022-10-15T07:00:07;14.80;99.90
70947;DHT22;58605;48.700;8.760;2022-10-15T07:02:34;14.70;99.90
70947;DHT22;58605;48.700;8.760;2022-10-15T07:05:01;14.70;99.90
70947;DHT22;58605;48.700;8.760;2022-10-15T07:07:28;14.50;99.90
70947;DHT22;58605;48.700;8.760;2022-10-15T07:09:54;14.40;99.90
70947;DHT22;58605;48.700;8.760;2022-10-15T07:12:20;14.30;99.90
70947;DHT22;58605;48.700;8.760;2022-10-15T07:14:47;14.20;99.90
70947;DHT22;58605;48.700;8.760;2022-10-15T07:17:13;14.20;99.90
70947;DHT22;58605;48.700;8.760;2022-10-15T07:19:39;14.20;99.90
70947;DHT22;58605;48.700;8.760;2022-10-15T07:22:05;14.10;99.90
70947;DHT22;58605;48.700;8.760;2022-10-15T07:24:33;14.10;99.90
70947;DHT22;58605;48.700;8.760;2022-10-15T07:27:27;14.10;99.90
70947;DHT22;58605;48.700;8.760;2022-10-15T07:30:00;14.10;99.90
70947;DHT22;58605;48.700;8.760;2022-10-15T07:32:26;14.10;99.90
70947;DHT22;58605;48.700;8.760;2022-10-15T07:34:52;14.10;99.90
70947;DHT22;58605;48.700;8.760;2022-10-15T07:37:18;14.10;99.90
70947;DHT22;58605;48.700;8.760;2022-10-15T07:39:44;14.10;99.90
70947;DHT22;58605;48.700;8.760;2022-10-15T07:42:10;14.10;99.90
70947;DHT22;58605;48.700;8.760;2022-10-15T07:44:37;14.20;99.90
70947;DHT22;58605;48.700;8.760;2022-10-15T07:47:03;14.20;99.90
70947;DHT22;58605;48.700;8.760;2022-10-15T07:49:29;14.20;99.90
70947;DHT22;58605;48.700;8.760;2022-10-15T07:51:55;14.20;99.90
70947;DHT22;58605;48.700;8.760;2022-10-15T07:54:21;14.20;99.90
70947;DHT22;58605;48.700;8.760;2022-10-15T07:56:48;14.20;99.90
70947;DHT22;58605;48.700;8.760;2022-10-15T07:59:14;14.30;99.90
70947;DHT22;58605;48.700;8.760;2022-10-15T08:01:41;14.20;99.90
70947;DHT22;58605;48.700;8.760;2022-10-15T08:04:07;14.20;99.90
70947;DHT22;58605;48.700;8.760;2022-10-15T08:06:34;14.20;99.90
70947;DHT22;58605;48.700;8.760;2022-10-15T08:09:00;14.30;99.90
70947;DHT22;58605;48.700;8.760;2022-10-15T08:11:26;14.30;99.90
70947;DHT22;58605;48.700;8.760;2022-10-15T08:13:52;14.30;99.90
70947;DHT22;58605;48.700;8.760;2022-10-15T08:16:18;14.40;99.90
70947;DHT22;58605;48.700;8.760;2022-10-15T08:18:46;14.40;99.90
70947;DHT22;58605;48.700;8.760;2022-10-15T08:21:12;14.40;99.90
70947;DHT22;58605;48.700;8.760;2022-10-15T08:23:38;14.40;99.90
70947;DHT22;58605;48.700;8.760;2022-10-15T08:26:04;14.30;99.90
70947;DHT22;58605;48.700;8.760;2022-10-15T08:28:32;14.40;99.90
70947;DHT22;58605;48.700;8.760;2022-10-15T08:30:58;14.40;99.90
70947;DHT22;58605;48.700;8.760;2022-10-15T08:33:24;14.40;99.90
70947;DHT22;58605;48.700;8.760;2022-10-15T08:35:52;14.40;99.90
70947;DHT22;58605;48.700;8.760;2022-10-15T08:38:18;14.50;99.90
70947;DHT22;58605;48.700;8.760;2022-10-15T08:40:47;14.50;99.90
70947;DHT22;58605;48.700;8.760;2022-10-15T08:43:18;14.50;99.90
70947;DHT22;58605;48.700;8.760;2022-10-15T08:45:46;14.50;99.90
70947;DHT22;58605;48.700;8.760;2022-10-15T08:48:17;14.50;99.90
70947;DHT22;58605;48.700;8.760;2022-10-15T08:50:49;14.50;99.90
70947;DHT22;58605;48.700;8.760;2022-10-15T08:53:21;14.50;99.90
70947;DHT22;58605;48.700;8.760;2022-10-15T08:55:50;14.50;99.90
70947;DHT22;58605;48.700;8.760;2022-10-15T08:58:21;14.50;99.90
70947;DHT22;58605;48.700;8.760;2022-10-15T09:00:50;14.40;99.90
70947;DHT22;58605;48.700;8.760;2022-10-15T09:03:30;14.40;99.90
70947;DHT22;58605;48.700;8.760;2022-10-15T09:06:05;14.50;99.90
70947;DHT22;58605;48.700;8.760;2022-10-15T09:08:39;14.70;99.90
70947;DHT22;58605;48.700;8.760;2022-10-15T09:11:11;14.90;99.90
70947;DHT22;58605;48.700;8.760;2022-10-15T09:13:40;15.20;99.90
70947;DHT22;58605;48.700;8.760;2022-10-15T09:16:14;15.20;99.90
70947;DHT22;58605;48.700;8.760;2022-10-15T09:18:43;15.20;99.90
70947;DHT22;58605;48.700;8.760;2022-10-15T09:21:12;15.10;99.90
70947;DHT22;58605;48.700;8.760;2022-10-15T09:23:40;15.00;99.90
70947;DHT22;58605;48.700;8.760;2022-10-15T09:26:18;14.80;99.90
70947;DHT22;58605;48.700;8.760;2022-10-15T09:28:51;14.70;99.90
70947;DHT22;58605;48.700;8.760;2022-10-15T09:31:21;14.70;99.90
70947;DHT22;58605;48.700;8.760;2022-10-15T09:33:52;14.60;99.90
70947;DHT22;58605;48.700;8.760;2022-10-15T09:36:31;14.60;99.90
70947;DHT22;58605;48.700;8.760;2022-10-15T09:39:09;14.60;99.90
70947;DHT22;58605;48.700;8.760;2022-10-15T09:41:48;14.70;99.90
70947;DHT22;58605;48.700;8.760;2022-10-15T09:44:22;14.60;99.90
70947;DHT22;58605;48.700;8.760;2022-10-15T09:46:50;14.70;99.90
70947;DHT22;58605;48.700;8.760;2022-10-15T09:49:24;14.70;99.90
70947;DHT22;58605;48.700;8.760;2022-10-15T09:51:56;14.70;99.90
70947;DHT22;58605;48.700;8.760;2022-10-15T09:54:31;14.70;99.90
70947;DHT22;58605;48.700;8.760;2022-10-15T09:57:00;14.60;99.90
70947;DHT22;58605;48.700;8.760;2022-10-15T09:59:26;14.70;99.90
70947;DHT22;58605;48.700;8.760;2022-10-15T10:01:58;14.90;99.90
70947;DHT22;58605;48.700;8.760;2022-10-15T10:04:26;14.80;99.90
70947;DHT22;58605;48.700;8.760;2022-10-15T10:06:53;14.80;99.90
70947;DHT22;58605;48.700;8.760;2022-10-15T10:09:24;15.00;99.90
70947;DHT22;58605;48.700;8.760;2022-10-15T10:11:53;15.00;99.90
70947;DHT22;58605;48.700;8.760;2022-10-15T10:14:24;15.00;99.90
70947;DHT22;58605;48.700;8.760;2022-10-15T10:17:13;15.00;99.90
70947;DHT22;58605;48.700;8.760;2022-10-15T10:19:43;15.10;99.90
70947;DHT22;58605;48.700;8.760;2022-10-15T10:22:15;15.10;99.90
70947;DHT22;58605;48.700;8.760;2022-10-15T10:24:41;15.10;99.90
70947;DHT22;58605;48.700;8.760;2022-10-15T10:27:19;15.10;99.90
70947;DHT22;58605;48.700;8.760;2022-10-15T10:29:50;15.10;99.90
70947;DHT22;58605;48.700;8.760;2022-10-15T10:32:19;15.30;99.90
70947;DHT22;58605;48.700;8.760;2022-10-15T10:34:46;15.10;99.90
70947;DHT22;58605;48.700;8.760;2022-10-15T10:37:12;15.10;99.90
70947;DHT22;58605;48.700;8.760;2022-10-15T10:39:38;15.10;99.90
70947;DHT22;58605;48.700;8.760;2022-10-15T10:42:06;15.10;99.90
70947;DHT22;58605;48.700;8.760;2022-10-15T10:44:36;14.90;99.90
70947;DHT22;58605;48.700;8.760;2022-10-15T10:47:11;14.80;99.90
70947;DHT22;58605;48.700;8.760;2022-10-15T10:49:39;14.70;99.90
70947;DHT22;58605;48.700;8.760;2022-10-15T10:52:18;14.70;99.90
70947;DHT22;58605;48.700;8.760;2022-10-15T10:54:45;14.60;99.90
70947;DHT22;58605;48.700;8.760;2022-10-15T10:57:13;14.60;99.90
70947;DHT22;58605;48.700;8.760;2022-10-15T10:59:49;14.70;99.90
70947;DHT22;58605;48.700;8.760;2022-10-15T11:02:16;14.50;99.90
70947;DHT22;58605;48.700;8.760;2022-10-15T11:04:42;14.50;99.90
70947;DHT22;58605;48.700;8.760;2022-10-15T11:07:14;14.60;99.90
70947;DHT22;58605;48.700;8.760;2022-10-15T11:09:54;14.60;99.90
70947;DHT22;58605;48.700;8.760;2022-10-15T11:12:33;14.60;99.90
70947;DHT22;58605;48.700;8.760;2022-10-15T11:15:19;14.60;99.90
70947;DHT22;58605;48.700;8.760;2022-10-15T11:17:58;14.60;99.90
70947;DHT22;58605;48.700;8.760;2022-10-15T11:20:32;14.50;99.90
70947;DHT22;58605;48.700;8.760;2022-10-15T11:23:17;14.70;99.90
70947;DHT22;58605;48.700;8.760;2022-10-15T11:25:53;14.70;99.90
70947;DHT22;58605;48.700;8.760;2022-10-15T11:28:33;14.60;99.90
70947;DHT22;58605;48.700;8.760;2022-10-15T11:31:13;14.60;99.90
70947;DHT22;58605;48.700;8.760;2022-10-15T11:33:50;14.50;99.90
70947;DHT22;58605;48.700;8.760;2022-10-15T11:36:31;14.50;99.90
70947;DHT22;58605;48.700;8.760;2022-10-15T11:39:13;14.50;99.90
70947;DHT22;58605;48.700;8.760;2022-10-15T11:41:46;14.50;99.90
70947;DHT22;58605;48.700;8.760;2022-10-15T11:44:26;14.60;99.90
70947;DHT22;58605;48.700;8.760;2022-10-15T11:47:07;14.60;99.90
70947;DHT22;58605;48.700;8.760;2022-10-15T11:49:42;14.50;99.90
70947;DHT22;58605;48.700;8.760;2022-10-15T11:52:22;14.50;99.90
70947;DHT22;58605;48.700;8.760;2022-10-15T11:55:01;14.50;99.90
70947;DHT22;58605;48.700;8.760;2022-10-15T11:57:31;14.50;99.90
70947;DHT22;58605;48.700;8.760;2022-10-15T12:00:02;14.50;99.90
70947;DHT22;58605;48.700;8.760;2022-10-15T12:02:34;14.60;99.90
70947;DHT22;58605;48.700;8.760;2022-10-15T12:05:04;14.50;99.90
70947;DHT22;58605;48.700;8.760;2022-10-15T12:07:36;14.50;99.90
70947;DHT22;58605;48.700;8.760;2022-10-15T12:10:14;14.50;99.90
70947;DHT22;58605;48.700;8.760;2022-10-15T12:12:48;14.60;99.90
70947;DHT22;58605;48.700;8.760;2022-10-15T12:15:25;14.60;99.90
70947;DHT22;58605;48.700;8.760;2022-10-15T12:18:00;14.50;99.90
70947;DHT22;58605;48.700;8.760;2022-10-15T12:20:28;14.60;99.90
70947;DHT22;58605;48.700;8.760;2022-10-15T12:22:57;14.50;99.90
70947;DHT22;58605;48.700;8.760;2022-10-15T12:25:47;14.50;99.90
70947;DHT22;58605;48.700;8.760;2022-10-15T12:28:17;14.50;99.90
70947;DHT22;58605;48.700;8.760;2022-10-15T12:30:56;14.60;99.90
70947;DHT22;58605;48.700;8.760;2022-10-15T12:33:30;14.60;99.90
70947;DHT22;58605;48.700;8.760;2022-10-15T12:35:58;14.60;99.90
70947;DHT22;58605;48.700;8.760;2022-10-15T12:38:28;14.70;99.90
70947;DHT22;58605;48.700;8.760;2022-10-15T12:40:57;14.70;99.90
70947;DHT22;58605;48.700;8.760;2022-10-15T12:43:24;14.80;99.90
70947;DHT22;58605;48.700;8.760;2022-10-15T12:45:52;14.70;99.90
70947;DHT22;58605;48.700;8.760;2022-10-15T12:48:29;14.70;99.90
70947;DHT22;58605;48.700;8.760;2022-10-15T12:53:58;14.80;99.90
70947;DHT22;58605;48.700;8.760;2022-10-15T12:56:35;14.80;99.90
70947;DHT22;58605;48.700;8.760;2022-10-15T12:59:03;14.70;99.90
70947;DHT22;58605;48.700;8.760;2022-10-15T13:01:49;14.60;99.90
70947;DHT22;58605;48.700;8.760;2022-10-15T13:04:18;14.60;99.90
70947;DHT22;58605;48.700;8.760;2022-10-15T13:06:45;14.60;99.90
70947;DHT22;58605;48.700;8.760;2022-10-15T13:09:26;14.70;99.90
70947;DHT22;58605;48.700;8.760;2022-10-15T13:11:54;14.70;99.90
70947;DHT22;58605;48.700;8.760;2022-10-15T13:14:27;14.60;99.90
70947;DHT22;58605;48.700;8.760;2022-10-15T13:16:54;14.70;99.90
70947;DHT22;58605;48.700;8.760;2022-10-15T13:19:25;14.70;99.90
70947;DHT22;58605;48.700;8.760;2022-10-15T13:21:53;14.70;99.90
70947;DHT22;58605;48.700;8.760;2022-10-15T13:24:21;14.70;99.90
70947;DHT22;58605;48.700;8.760;2022-10-15T13:26:48;14.60;99.90
70947;DHT22;58605;48.700;8.760;2022-10-15T13:29:15;14.60;99.90
70947;DHT22;58605;48.700;8.760;2022-10-15T13:31:42;14.60;99.90
70947;DHT22;58605;48.700;8.760;2022-10-15T13:34:26;14.60;99.90
70947;DHT22;58605;48.700;8.760;2022-10-15T13:36:53;14.60;99.90
70947;DHT22;58605;48.700;8.760;2022-10-15T13:39:27;14.70;99.90
70947;DHT22;58605;48.700;8.760;2022-10-15T13:42:05;14.70;99.90
70947;DHT22;58605;48.700;8.760;2022-10-15T13:44:31;14.70;99.90
70947;DHT22;58605;48.700;8.760;2022-10-15T13:46:58;14.60;99.90
70947;DHT22;58605;48.700;8.760;2022-10-15T13:49:24;14.70;99.90
70947;DHT22;58605;48.700;8.760;2022-10-15T13:51:52;14.70;99.90
70947;DHT22;58605;48.700;8.760;2022-10-15T13:54:20;14.70;99.90
70947;DHT22;58605;48.700;8.760;2022-10-15T13:56:51;14.70;99.90
70947;DHT22;58605;48.700;8.760;2022-10-15T13:59:19;14.70;99.90
70947;DHT22;58605;48.700;8.760;2022-10-15T14:01:47;14.70;99.90
70947;DHT22;58605;48.700;8.760;2022-10-15T14:04:15;14.70;99.90
70947;DHT22;58605;48.700;8.760;2022-10-15T14:06:53;14.80;99.90
70947;DHT22;58605;48.700;8.760;2022-10-15T14:09:22;14.70;99.90
70947;DHT22;58605;48.700;8.760;2022-10-15T14:11:51;14.70;99.90
70947;DHT22;58605;48.700;8.760;2022-10-15T14:14:29;14.70;99.90
70947;DHT22;58605;48.700;8.760;2022-10-15T14:16:57;14.80;99.90
70947;DHT22;58605;48.700;8.760;2022-10-15T14:19:24;14.80;99.90
70947;DHT22;58605;48.700;8.760;2022-10-15T14:21:56;14.70;99.90
70947;DHT22;58605;48.700;8.760;2022-10-15T14:24:27;14.70;99.90
70947;DHT22;58605;48.700;8.760;2022-10-15T14:27:01;14.80;99.90
70947;DHT22;58605;48.700;8.760;2022-10-15T14:29:34;14.80;99.90
70947;DHT22;58605;48.700;8.760;2022-10-15T14:32:01;14.80;99.90
70947;DHT22;58605;48.700;8.760;2022-10-15T14:34:38;14.70;99.90
70947;DHT22;58605;48.700;8.760;2022-10-15T14:37:31;14.80;99.90
70947;DHT22;58605;48.700;8.760;2022-10-15T14:40:13;14.80;99.90
70947;DHT22;58605;48.700;8.760;2022-10-15T14:42:41;14.80;99.90
70947;DHT22;58605;48.700;8.760;2022-10-15T14:45:17;14.80;99.90
70947;DHT22;58605;48.700;8.760;2022-10-15T14:47:44;14.80;99.90
70947;DHT22;58605;48.700;8.760;2022-10-15T14:50:11;14.70;99.90
70947;DHT22;58605;48.700;8.760;2022-10-15T14:52:43;14.70;99.90
70947;DHT22;58605;48.700;8.760;2022-10-15T14:55:14;14.80;99.90
70947;DHT22;58605;48.700;8.760;2022-10-15T14:57:44;14.70;99.90
70947;DHT22;58605;48.700;8.760;2022-10-15T15:00:16;14.70;99.90
70947;DHT22;58605;48.700;8.760;2022-10-15T15:02:44;14.70;99.90
70947;DHT22;58605;48.700;8.760;2022-10-15T15:05:19;14.70;99.90
70947;DHT22;58605;48.700;8.760;2022-10-15T15:07:48;14.70;99.90
70947;DHT22;58605;48.700;8.760;2022-10-15T15:10:14;14.70;99.90
70947;DHT22;58605;48.700;8.760;2022-10-15T15:12:47;14.70;99.90
70947;DHT22;58605;48.700;8.760;2022-10-15T15:15:16;14.70;99.90
70947;DHT22;58605;48.700;8.760;2022-10-15T15:17:43;14.80;99.90
70947;DHT22;58605;48.700;8.760;2022-10-15T15:20:10;14.70;99.90
70947;DHT22;58605;48.700;8.760;2022-10-15T15:22:37;14.80;99.90
70947;DHT22;58605;48.700;8.760;2022-10-15T15:25:09;14.80;99.90
70947;DHT22;58605;48.700;8.760;2022-10-15T15:27:38;14.80;99.90
70947;DHT22;58605;48.700;8.760;2022-10-15T15:30:05;14.80;99.90
70947;DHT22;58605;48.700;8.760;2022-10-15T15:32:32;14.80;99.90
70947;DHT22;58605;48.700;8.760;2022-10-15T15:34:58;14.80;99.90
70947;DHT22;58605;48.700;8.760;2022-10-15T15:37:25;14.80;99.90
70947;DHT22;58605;48.700;8.760;2022-10-15T15:39:52;14.80;99.90
70947;DHT22;58605;48.700;8.760;2022-10-15T15:42:21;14.80;99.90
70947;DHT22;58605;48.700;8.760;2022-10-15T15:44:54;14.80;99.90
70947;DHT22;58605;48.700;8.760;2022-10-15T15:47:20;14.80;99.90
70947;DHT22;58605;48.700;8.760;2022-10-15T15:49:46;14.80;99.90